createdAt,value
2022-10-22T00:01:41.191Z,14.43
2022-10-22T00:04:08.074Z,14.47
2022-10-22T00:06:35.313Z,14.18
2022-10-22T00:09:02.130Z,13.93
2022-10-22T00:11:28.826Z,13.67
2022-10-22T00:13:55.947Z,13.53
2022-10-22T00:16:22.558Z,13.56
2022-10-22T00:18:49.202Z,13.25
2022-10-22T00:21:15.823Z,13.10
2022-10-22T00:23:43.448Z,13.22
2022-10-22T00:26:10.932Z,13.10
2022-10-22T00:28:38.147Z,13.20
2022-10-22T00:31:05.335Z,13.01
2022-10-22T00:33:32.092Z,12.62
2022-10-22T00:35:58.901Z,11.93
2022-10-22T00:38:25.651Z,11.44
2022-10-22T00:40:52.339Z,11.28
2022-10-22T00:43:20.365Z,11.27
2022-10-22T00:45:47.313Z,11.42
2022-10-22T00:48:18.808Z,11.70
2022-10-22T00:50:58.189Z,11.50
2022-10-22T00:53:41.588Z,11.73
2022-10-22T00:56:09.727Z,11.83
2022-10-22T00:58:39.172Z,12.14
2022-10-22T01:01:09.257Z,12.37
2022-10-22T01:03:36.195Z,12.52
2022-10-22T01:06:05.267Z,12.43
2022-10-22T01:08:54.516Z,12.76
2022-10-22T01:11:57.260Z,12.81
2022-10-22T01:15:02.398Z,12.93
2022-10-22T01:18:02.617Z,12.96
2022-10-22T01:21:04.846Z,13.03
2022-10-22T01:24:15.547Z,12.68
2022-10-22T01:27:12.694Z,12.57
2022-10-22T01:29:50.555Z,12.31
2022-10-22T01:32:23.639Z,12.19
2022-10-22T01:35:00.303Z,12.28
2022-10-22T01:37:30.389Z,12.41
2022-10-22T01:40:00.935Z,12.37
2022-10-22T01:42:27.883Z,12.50
2022-10-22T01:44:54.500Z,12.58
2022-10-22T01:47:44.110Z,12.75
2022-10-22T01:50:34.365Z,12.73
2022-10-22T01:53:00.896Z,12.31
2022-10-22T01:55:33.614Z,12.48
2022-10-22T01:58:35.499Z,12.65
2022-10-22T02:01:08.070Z,12.63
2022-10-22T02:03:42.795Z,12.60
2022-10-22T02:06:17.451Z,12.62
2022-10-22T02:08:45.810Z,12.61
2022-10-22T02:11:14.827Z,12.58
2022-10-22T02:13:48.767Z,12.61
2022-10-22T02:16:39.544Z,12.59
2022-10-22T02:19:15.902Z,12.37
2022-10-22T02:21:42.839Z,12.32
2022-10-22T02:24:09.483Z,12.30
2022-10-22T02:26:42.798Z,12.24
2022-10-22T02:29:18.846Z,12.33
2022-10-22T02:31:48.789Z,11.83
2022-10-22T02:34:28.438Z,11.72
2022-10-22T02:36:56.245Z,11.82
2022-10-22T02:39:23.240Z,11.83
2022-10-22T02:41:49.870Z,11.96
2022-10-22T02:44:20.514Z,12.01
2022-10-22T02:46:47.135Z,12.12
2022-10-22T02:49:14.135Z,11.94
2022-10-22T02:51:40.726Z,11.92
2022-10-22T02:54:07.334Z,12.10
2022-10-22T02:56:34.167Z,12.25
2022-10-22T02:59:00.777Z,11.91
2022-10-22T03:01:27.451Z,11.47
2022-10-22T03:03:54.109Z,11.39
2022-10-22T03:06:20.739Z,11.39
2022-10-22T03:08:47.461Z,11.39
2022-10-22T03:11:14.068Z,11.27
2022-10-22T03:13:40.728Z,11.37
2022-10-22T03:16:07.429Z,11.61
2022-10-22T03:18:34.342Z,11.77
2022-10-22T03:21:20.470Z,11.99
2022-10-22T03:23:48.201Z,12.00
2022-10-22T03:26:15.431Z,11.95
2022-10-22T03:28:42.527Z,11.80
2022-10-22T03:31:09.174Z,11.86
2022-10-22T03:33:35.746Z,12.03
2022-10-22T03:36:02.475Z,12.09
2022-10-22T03:38:30.105Z,12.02
2022-10-22T03:40:56.853Z,11.86
2022-10-22T03:43:23.645Z,11.74
2022-10-22T03:45:50.214Z,11.66
2022-10-22T03:48:16.823Z,11.62
2022-10-22T03:50:43.403Z,11.54
2022-10-22T03:53:10.716Z,11.65
2022-10-22T03:55:38.387Z,11.68
2022-10-22T03:58:05.616Z,11.66
2022-10-22T04:00:32.691Z,11.75
2022-10-22T04:02:59.290Z,11.68
2022-10-22T04:05:26.068Z,11.94
2022-10-22T04:07:52.715Z,12.14
2022-10-22T04:10:19.315Z,11.64
2022-10-22T04:12:48.787Z,10.90
2022-10-22T04:15:15.526Z,10.78
2022-10-22T04:17:42.503Z,10.99
2022-10-22T04:20:10.042Z,11.36
2022-10-22T04:22:36.978Z,11.67
2022-10-22T04:25:04.806Z,11.94
2022-10-22T04:27:32.594Z,11.98
2022-10-22T04:29:59.381Z,12.12
2022-10-22T04:32:29.471Z,12.27
2022-10-22T04:34:56.065Z,12.35
2022-10-22T04:37:22.641Z,12.28
2022-10-22T04:39:49.343Z,12.18
2022-10-22T04:42:15.969Z,12.27
2022-10-22T04:44:42.636Z,12.47
2022-10-22T04:47:09.218Z,12.63
2022-10-22T04:49:35.807Z,12.54
2022-10-22T04:52:02.413Z,12.64
2022-10-22T04:54:32.219Z,12.79
2022-10-22T04:56:59.934Z,12.82
2022-10-22T04:59:26.593Z,12.96
2022-10-22T05:01:53.163Z,12.88
2022-10-22T05:04:19.890Z,12.88
2022-10-22T05:06:46.771Z,12.70
2022-10-22T05:09:19.679Z,12.72
2022-10-22T05:11:49.143Z,12.98
2022-10-22T05:14:26.210Z,13.16
2022-10-22T05:16:53.033Z,12.98
2022-10-22T05:19:26.481Z,13.00
2022-10-22T05:21:55.082Z,13.12
2022-10-22T05:24:22.241Z,13.18
2022-10-22T05:26:50.957Z,13.10
2022-10-22T05:29:17.607Z,12.88
2022-10-22T05:31:44.305Z,13.16
2022-10-22T05:34:11.289Z,13.29
2022-10-22T05:36:38.049Z,13.27
2022-10-22T05:39:04.854Z,13.28
2022-10-22T05:41:32.909Z,13.32
2022-10-22T05:44:00.513Z,13.33
2022-10-22T05:46:30.052Z,13.34
2022-10-22T05:48:59.416Z,13.52
2022-10-22T05:51:27.977Z,13.48
2022-10-22T05:53:57.249Z,13.58
2022-10-22T05:56:25.165Z,13.60
2022-10-22T05:58:52.241Z,13.68
2022-10-22T06:01:30.354Z,13.62
2022-10-22T06:03:59.302Z,13.60
2022-10-22T06:06:30.332Z,13.59
2022-10-22T06:09:01.617Z,13.67
2022-10-22T06:11:31.092Z,13.59
2022-10-22T06:14:00.778Z,13.56
2022-10-22T06:16:29.553Z,13.62
2022-10-22T06:18:56.322Z,13.69
2022-10-22T06:21:22.915Z,13.65
2022-10-22T06:23:49.482Z,13.69
2022-10-22T06:26:17.871Z,13.67
2022-10-22T06:28:44.517Z,13.80
2022-10-22T06:31:11.140Z,13.90
2022-10-22T06:33:42.314Z,13.90
2022-10-22T06:36:11.905Z,13.80
2022-10-22T06:38:39.165Z,13.94
2022-10-22T06:41:08.305Z,13.81
2022-10-22T06:43:35.534Z,13.87
2022-10-22T06:46:04.135Z,13.88
2022-10-22T06:48:31.238Z,13.97
2022-10-22T06:51:03.122Z,13.77
2022-10-22T06:53:30.698Z,13.81
2022-10-22T06:55:57.544Z,13.91
2022-10-22T06:58:24.551Z,13.92
2022-10-22T07:01:03.973Z,14.11
2022-10-22T07:03:30.586Z,14.14
2022-10-22T07:06:03.062Z,14.19
2022-10-22T07:08:30.308Z,14.07
2022-10-22T07:11:04.875Z,14.02
2022-10-22T07:13:31.456Z,14.06
2022-10-22T07:15:58.088Z,13.99
2022-10-22T07:18:24.821Z,14.14
2022-10-22T07:20:51.384Z,14.27
2022-10-22T07:23:18.020Z,14.32
2022-10-22T07:25:44.955Z,14.36
2022-10-22T07:28:12.052Z,14.37
2022-10-22T07:30:39.450Z,14.24
2022-10-22T07:33:06.422Z,14.04
2022-10-22T07:35:34.505Z,14.30
2022-10-22T07:38:01.294Z,14.23
2022-10-22T07:40:27.975Z,14.28
2022-10-22T07:42:54.627Z,14.36
2022-10-22T07:45:21.304Z,14.37
2022-10-22T07:47:48.543Z,14.39
2022-10-22T07:50:16.142Z,14.45
2022-10-22T07:52:43.308Z,14.36
2022-10-22T07:55:11.183Z,14.35
2022-10-22T07:57:37.791Z,14.34
2022-10-22T08:00:07.181Z,14.50
2022-10-22T08:02:33.831Z,14.51
2022-10-22T08:05:00.466Z,14.57
2022-10-22T08:07:27.362Z,14.51
2022-10-22T08:09:53.982Z,14.62
2022-10-22T08:12:20.718Z,14.69
2022-10-22T08:14:47.318Z,14.66
2022-10-22T08:17:13.906Z,14.71
2022-10-22T08:19:40.514Z,14.66
2022-10-22T08:22:07.493Z,14.80
2022-10-22T08:24:34.180Z,14.79
2022-10-22T08:27:00.875Z,14.94
2022-10-22T08:29:27.467Z,14.93
2022-10-22T08:31:54.358Z,15.02
2022-10-22T08:34:21.074Z,15.06
2022-10-22T08:36:47.995Z,15.17
2022-10-22T08:39:14.679Z,15.18
2022-10-22T08:42:01.211Z,15.11
2022-10-22T08:44:42.993Z,15.23
2022-10-22T08:47:27.150Z,14.89
2022-10-22T08:49:55.219Z,14.94
2022-10-22T08:52:22.065Z,14.93
2022-10-22T08:54:52.490Z,14.78
2022-10-22T08:57:35.948Z,14.84
2022-10-22T09:00:05.246Z,14.92
2022-10-22T09:02:59.531Z,15.02
2022-10-22T09:05:41.213Z,14.82
2022-10-22T09:08:12.443Z,14.71
2022-10-22T09:10:43.778Z,14.70
2022-10-22T09:13:16.067Z,14.66
2022-10-22T09:15:44.996Z,14.54
2022-10-22T09:18:32.054Z,14.65
2022-10-22T09:21:11.265Z,14.54
2022-10-22T09:23:55.958Z,14.48
2022-10-22T09:26:22.579Z,14.35
2022-10-22T09:28:51.200Z,14.39
2022-10-22T09:31:18.323Z,14.25
2022-10-22T09:33:48.852Z,14.28
2022-10-22T09:36:21.754Z,14.39
2022-10-22T09:38:50.851Z,14.47
2022-10-22T09:41:19.877Z,14.52
2022-10-22T09:43:48.296Z,14.38
2022-10-22T09:46:21.574Z,14.39
2022-10-22T09:49:13.251Z,14.57
2022-10-22T09:51:51.932Z,14.58
2022-10-22T09:54:25.823Z,14.62
2022-10-22T09:56:59.382Z,14.55
2022-10-22T09:59:37.141Z,14.46
2022-10-22T10:02:20.040Z,14.49
2022-10-22T10:04:57.838Z,14.82
2022-10-22T10:07:26.925Z,14.98
2022-10-22T10:09:54.659Z,15.11
2022-10-22T10:12:30.827Z,15.08
2022-10-22T10:15:16.296Z,15.05
2022-10-22T10:17:48.971Z,14.85
2022-10-22T10:20:41.095Z,15.11
2022-10-22T10:23:13.594Z,15.46
2022-10-22T10:25:40.087Z,15.48
2022-10-22T10:28:15.459Z,15.65
2022-10-22T10:30:57.306Z,15.77
2022-10-22T10:33:41.789Z,15.97
2022-10-22T10:36:20.951Z,15.97
2022-10-22T10:39:18.363Z,16.07
2022-10-22T10:42:28.240Z,16.24
2022-10-22T10:45:26.793Z,15.88
2022-10-22T10:48:05.308Z,15.46
2022-10-22T10:50:42.787Z,15.35
2022-10-22T10:53:24.511Z,14.88
2022-10-22T10:56:04.792Z,15.08
2022-10-22T10:58:34.083Z,14.98
2022-10-22T11:01:15.373Z,15.32
2022-10-22T11:03:55.970Z,15.75
2022-10-22T11:06:25.540Z,15.91
2022-10-22T11:09:00.172Z,16.09
2022-10-22T11:11:47.103Z,16.22
2022-10-22T11:14:23.440Z,16.11
2022-10-22T11:16:51.828Z,15.92
2022-10-22T11:19:46.269Z,16.15
2022-10-22T11:22:26.795Z,16.32
2022-10-22T11:25:18.286Z,16.43
2022-10-22T11:28:11.553Z,16.52
2022-10-22T11:30:40.921Z,16.39
2022-10-22T11:33:12.811Z,16.19
2022-10-22T11:35:42.664Z,15.85
2022-10-22T11:38:15.110Z,15.82
2022-10-22T11:40:50.439Z,15.28
2022-10-22T11:43:57.244Z,15.00
2022-10-22T11:46:23.816Z,14.97
2022-10-22T11:49:04.847Z,15.20
2022-10-22T11:51:37.212Z,15.24
2022-10-22T11:54:29.823Z,15.69
2022-10-22T11:57:25.439Z,16.13
2022-10-22T12:00:00.690Z,16.22
2022-10-22T12:02:45.003Z,16.16
2022-10-22T12:05:24.011Z,16.16
2022-10-22T12:07:57.175Z,16.13
2022-10-22T12:10:28.354Z,16.17
2022-10-22T12:13:12.810Z,15.78
2022-10-22T12:15:51.870Z,15.88
2022-10-22T12:18:18.549Z,15.78
2022-10-22T12:20:51.044Z,15.94
2022-10-22T12:23:17.966Z,15.85
2022-10-22T12:25:44.597Z,15.34
2022-10-22T12:28:13.259Z,15.32
2022-10-22T12:30:39.902Z,15.22
2022-10-22T12:33:18.056Z,14.95
2022-10-22T12:35:46.734Z,14.87
2022-10-22T12:38:21.333Z,14.83
2022-10-22T12:40:51.222Z,14.64
2022-10-22T12:43:23.859Z,14.85
2022-10-22T12:45:51.702Z,14.83
2022-10-22T12:48:30.854Z,14.80
2022-10-22T12:51:03.903Z,14.79
2022-10-22T12:53:37.887Z,14.76
2022-10-22T12:56:07.142Z,14.73
2022-10-22T12:58:39.628Z,14.70
2022-10-22T13:01:06.900Z,14.66
2022-10-22T13:03:41.623Z,14.68
2022-10-22T13:06:20.302Z,14.72
2022-10-22T13:09:03.933Z,14.65
2022-10-22T13:11:38.292Z,14.72
2022-10-22T13:14:15.855Z,14.71
2022-10-22T13:16:42.465Z,14.79
2022-10-22T13:19:47.329Z,14.84
2022-10-22T13:22:37.766Z,14.67
2022-10-22T13:25:17.216Z,14.81
2022-10-22T13:27:48.658Z,14.84
2022-10-22T13:30:22.763Z,14.80
2022-10-22T13:32:56.001Z,14.87
2022-10-22T13:35:24.662Z,15.18
2022-10-22T13:37:51.440Z,15.41
2022-10-22T13:40:18.539Z,15.34
2022-10-22T13:42:45.175Z,15.15
2022-10-22T13:45:13.773Z,15.23
2022-10-22T13:47:41.211Z,15.38
2022-10-22T13:50:14.803Z,15.35
2022-10-22T13:52:45.136Z,15.38
2022-10-22T13:55:25.710Z,15.23
2022-10-22T13:58:10.298Z,15.17
2022-10-22T14:00:42.321Z,15.26
2022-10-22T14:03:15.194Z,15.43
2022-10-22T14:05:41.914Z,15.37
2022-10-22T14:08:17.839Z,15.43
2022-10-22T14:10:44.650Z,15.49
2022-10-22T14:13:12.551Z,15.52
2022-10-22T14:15:40.830Z,15.64
2022-10-22T14:18:11.385Z,15.58
2022-10-22T14:20:40.990Z,15.46
2022-10-22T14:25:51.126Z,15.61
2022-10-22T14:28:17.982Z,15.74
2022-10-22T14:30:45.210Z,16.16
2022-10-22T14:33:28.992Z,16.29
2022-10-22T14:35:59.966Z,16.48
2022-10-22T14:38:26.727Z,16.09
2022-10-22T14:40:53.335Z,16.03
2022-10-22T14:43:26.123Z,15.84
2022-10-22T14:45:52.794Z,15.97
2022-10-22T14:50:51.193Z,16.59
2022-10-22T14:53:17.826Z,16.79
2022-10-22T14:55:47.212Z,16.91
2022-10-22T14:58:14.427Z,16.99
2022-10-22T15:00:42.072Z,16.96
2022-10-22T15:03:08.849Z,16.98
2022-10-22T15:05:36.349Z,17.45
2022-10-22T15:08:03.339Z,17.49
2022-10-22T15:10:29.915Z,17.57
2022-10-22T15:12:56.525Z,17.82
2022-10-22T15:15:23.816Z,17.85
2022-10-22T15:17:51.273Z,17.70
2022-10-22T15:20:17.969Z,17.19
2022-10-22T15:22:45.377Z,17.48
2022-10-22T15:25:13.457Z,17.72
2022-10-22T15:27:40.195Z,18.02
2022-10-22T15:30:07.585Z,18.27
2022-10-22T15:32:34.420Z,18.40
2022-10-22T15:35:05.960Z,18.40
2022-10-22T15:37:32.595Z,18.32
2022-10-22T15:40:00.506Z,17.46
2022-10-22T15:42:27.086Z,17.91
2022-10-22T15:45:00.144Z,18.33
2022-10-22T15:47:29.624Z,18.41
2022-10-22T15:49:56.434Z,18.28
2022-10-22T15:52:23.058Z,18.22
2022-10-22T15:54:49.720Z,18.32
2022-10-22T15:57:16.416Z,18.25
2022-10-22T15:59:43.111Z,18.30
2022-10-22T16:02:11.397Z,18.42
2022-10-22T16:04:38.684Z,18.20
2022-10-22T16:07:05.325Z,17.88
2022-10-22T16:09:31.932Z,18.00
2022-10-22T16:11:58.569Z,17.91
2022-10-22T16:14:25.398Z,18.05
2022-10-22T16:16:54.298Z,18.00
2022-10-22T16:19:22.733Z,18.01
2022-10-22T16:21:52.202Z,18.02
2022-10-22T16:24:19.667Z,17.99
2022-10-22T16:26:46.606Z,17.77
2022-10-22T16:29:13.510Z,17.84
2022-10-22T16:31:42.860Z,17.82
2022-10-22T16:34:09.726Z,17.74
2022-10-22T16:36:37.176Z,17.71
2022-10-22T16:39:05.226Z,17.64
2022-10-22T16:41:37.946Z,17.53
2022-10-22T16:44:07.839Z,17.46
2022-10-22T16:46:36.772Z,17.34
2022-10-22T16:49:03.356Z,17.18
2022-10-22T16:51:30.093Z,17.14
2022-10-22T16:53:57.535Z,17.04
2022-10-22T16:56:25.499Z,16.99
2022-10-22T16:58:54.783Z,16.87
2022-10-22T17:01:24.260Z,16.86
2022-10-22T17:03:50.884Z,16.79
2022-10-22T17:06:18.247Z,16.73
2022-10-22T17:08:45.054Z,16.60
2022-10-22T17:11:17.754Z,16.57
2022-10-22T17:13:48.726Z,16.49
2022-10-22T17:16:17.271Z,16.23
2022-10-22T17:21:18.532Z,16.19
2022-10-22T17:23:45.852Z,16.12
2022-10-22T17:26:20.430Z,16.10
2022-10-22T17:28:47.969Z,15.93
2022-10-22T17:31:25.850Z,15.75
2022-10-22T17:33:54.840Z,15.68
2022-10-22T17:36:22.920Z,15.71
2022-10-22T17:38:55.022Z,15.73
2022-10-22T17:41:25.754Z,15.67
2022-10-22T17:43:52.407Z,15.60
2022-10-22T17:46:22.259Z,15.49
2022-10-22T17:48:53.629Z,15.43
2022-10-22T17:51:20.883Z,15.46
2022-10-22T17:53:48.170Z,15.40
2022-10-22T17:56:17.305Z,15.33
2022-10-22T17:58:44.055Z,15.11
2022-10-22T18:01:20.958Z,15.09
2022-10-22T18:03:47.775Z,15.09
2022-10-22T18:06:14.463Z,15.11
2022-10-22T18:08:41.183Z,15.03
2022-10-22T18:11:12.960Z,14.95
2022-10-22T18:13:39.575Z,14.94
2022-10-22T18:16:06.497Z,14.76
2022-10-22T18:18:35.135Z,14.60
2022-10-22T18:21:02.450Z,14.60
2022-10-22T18:23:29.084Z,14.59
2022-10-22T18:25:55.828Z,14.47
2022-10-22T18:28:22.482Z,14.45
2022-10-22T18:30:49.203Z,14.38
2022-10-22T18:33:19.022Z,14.30
2022-10-22T18:35:48.429Z,14.29
2022-10-22T18:38:15.095Z,14.29
2022-10-22T18:40:46.688Z,14.28
2022-10-22T18:43:13.422Z,14.27
2022-10-22T18:45:44.533Z,14.15
2022-10-22T18:48:13.833Z,14.15
2022-10-22T18:50:40.480Z,14.04
2022-10-22T18:53:07.069Z,14.07
2022-10-22T18:55:34.904Z,14.00
2022-10-22T18:58:01.474Z,13.99
2022-10-22T19:00:28.114Z,13.99
2022-10-22T19:02:54.976Z,14.02
2022-10-22T19:05:21.839Z,13.95
2022-10-22T19:07:50.297Z,13.89
2022-10-22T19:10:17.543Z,13.80
2022-10-22T19:12:44.156Z,13.77
2022-10-22T19:15:10.897Z,13.75
2022-10-22T19:17:37.569Z,13.68
2022-10-22T19:20:04.710Z,13.60
2022-10-22T19:22:31.957Z,13.63
2022-10-22T19:24:58.961Z,13.49
2022-10-22T19:27:25.615Z,13.54
2022-10-22T19:29:52.282Z,13.45
2022-10-22T19:32:20.138Z,13.39
2022-10-22T19:34:47.242Z,13.39
2022-10-22T19:37:13.838Z,13.36
2022-10-22T19:39:40.433Z,13.34
2022-10-22T19:42:07.053Z,13.31
2022-10-22T19:44:33.730Z,13.24
2022-10-22T19:47:00.318Z,13.10
2022-10-22T19:49:26.957Z,13.06
2022-10-22T19:51:53.538Z,13.08
2022-10-22T19:54:20.605Z,13.07
2022-10-22T19:56:48.101Z,13.13
2022-10-22T19:59:16.156Z,12.96
2022-10-22T20:01:43.087Z,12.92
2022-10-22T20:04:15.147Z,12.72
2022-10-22T20:06:42.958Z,12.73
2022-10-22T20:09:11.160Z,12.72
2022-10-22T20:11:37.937Z,12.62
2022-10-22T20:14:04.564Z,12.63
2022-10-22T20:16:31.699Z,12.65
2022-10-22T20:19:02.983Z,12.63
2022-10-22T20:21:29.969Z,12.53
2022-10-22T20:23:57.550Z,12.44
2022-10-22T20:26:27.861Z,12.36
2022-10-22T20:28:55.807Z,12.51
2022-10-22T20:31:24.287Z,12.55
2022-10-22T20:33:51.242Z,12.39
2022-10-22T20:36:22.388Z,12.48
2022-10-22T20:38:50.267Z,12.32
2022-10-22T20:41:20.655Z,12.39
2022-10-22T20:43:49.233Z,12.43
2022-10-22T20:46:27.963Z,12.52
2022-10-22T20:48:58.389Z,12.44
2022-10-22T20:51:25.009Z,12.35
2022-10-22T20:53:51.665Z,12.34
2022-10-22T20:56:19.516Z,12.38
2022-10-22T20:58:49.477Z,12.35
2022-10-22T21:01:22.208Z,12.38
2022-10-22T21:03:51.404Z,12.32
2022-10-22T21:06:22.920Z,12.19
2022-10-22T21:08:50.681Z,12.10
2022-10-22T21:11:18.460Z,12.05
2022-10-22T21:13:45.028Z,12.05
2022-10-22T21:16:13.930Z,11.93
2022-10-22T21:18:40.800Z,11.78
2022-10-22T21:21:08.462Z,11.83
2022-10-22T21:23:36.606Z,11.85
2022-10-22T21:26:03.394Z,11.98
2022-10-22T21:31:06.839Z,11.89
2022-10-22T21:33:38.062Z,11.81
2022-10-22T21:36:06.144Z,11.77
2022-10-22T21:38:33.412Z,11.84
2022-10-22T21:41:05.233Z,11.88
2022-10-22T21:43:31.793Z,11.88
2022-10-22T21:46:08.854Z,11.85
2022-10-22T21:48:36.521Z,11.79
2022-10-22T21:51:12.177Z,11.61
2022-10-22T21:53:39.536Z,11.47
2022-10-22T21:56:07.127Z,11.52
2022-10-22T21:58:35.533Z,11.57
2022-10-22T22:01:02.804Z,11.61
2022-10-22T22:03:29.450Z,11.68
2022-10-22T22:06:01.714Z,11.69
2022-10-22T22:08:28.397Z,11.40
2022-10-22T22:11:02.686Z,11.54
2022-10-22T22:13:29.311Z,11.54
2022-10-22T22:16:03.422Z,11.27
2022-10-22T22:18:31.098Z,11.44
2022-10-22T22:20:59.073Z,11.50
2022-10-22T22:23:26.330Z,11.54
2022-10-22T22:25:52.988Z,11.56
2022-10-22T22:28:19.565Z,11.46
2022-10-22T22:30:46.138Z,11.41
2022-10-22T22:33:12.759Z,11.40
2022-10-22T22:38:10.793Z,11.22
2022-10-22T22:40:41.227Z,11.28
2022-10-22T22:43:08.547Z,11.05
2022-10-22T22:45:35.658Z,10.93
2022-10-22T22:48:03.154Z,11.11
2022-10-22T22:50:30.502Z,11.19
2022-10-22T22:52:57.125Z,11.10
2022-10-22T22:55:23.749Z,11.31
2022-10-22T22:57:50.511Z,11.35
2022-10-22T23:00:17.342Z,11.31
2022-10-22T23:02:44.210Z,11.21
2022-10-22T23:05:11.125Z,11.32
2022-10-22T23:07:37.685Z,11.34
2022-10-22T23:10:04.424Z,11.35
2022-10-22T23:12:30.996Z,11.35
2022-10-22T23:15:02.018Z,11.31
2022-10-22T23:17:28.896Z,11.12
2022-10-22T23:19:55.510Z,11.23
2022-10-22T23:22:22.080Z,11.35
2022-10-22T23:24:48.632Z,11.30
2022-10-22T23:27:15.224Z,11.17
2022-10-22T23:29:41.807Z,11.25
2022-10-22T23:32:14.311Z,11.26
2022-10-22T23:34:40.961Z,11.24
2022-10-22T23:37:07.650Z,11.22
2022-10-22T23:39:34.295Z,11.27
2022-10-22T23:42:00.944Z,11.26
2022-10-22T23:44:27.789Z,11.32
2022-10-22T23:46:55.230Z,11.31
2022-10-22T23:49:21.861Z,11.36
2022-10-22T23:51:48.505Z,11.29
2022-10-22T23:54:18.115Z,11.26
2022-10-22T23:56:45.151Z,11.37
2022-10-22T23:59:11.752Z,11.37
